• Join FlightAware (Why Join?)
  • Login
  • US Flag 
08:09PM EST


 

Airport Tracker/Info


-or-


 

Live Flight TrackerFlight Track Log ✈ N560GS ✈ 25-Jul-2013 ✈ KILM - KLYH

Flight Track Log - Related Links

Times and Time Zones

All times are in EDT time to prevent confusion due to time zone crossing. See the N560GS flight status page for this flight to view local times or setup timezone preferences in your user account.

Time Position Orientation Groundspeed Altitude Reporting Facility
EDT Latitude Longitude Course Direction KTS MPH feet Rate Location/Type
12:03PM 34.3947 -77.9603 341° North 257 296 6,700  Level Washington Center
12:04PM 34.4650 -77.9875 342° North 263 303 10,400 3,420 Climbing Washington Center
12:05PM 34.5333 -78.0172 340° North 263 303 13,600 3,000 Climbing Washington Center
12:06PM 34.6056 -78.0472 341° North 263 303 16,500 2,700 Climbing Washington Center
12:07PM 34.6800 -78.0797 340° North 274 315 19,000 2,460 Climbing Washington Center
12:08PM 34.7287 -78.0814 342° North  Level FlightAware Approximate
12:08PM 34.7589 -78.1075 344° North 280 322 21,400  Level Washington Center
12:09PM 34.8311 -78.1400 340° North 292 336 23,000 1,380 Climbing Washington Center
12:11PM 34.9242 -78.1758 342° North 315 362 24,500 1,320 Climbing Washington Center
12:12PM 35.0400 -78.2228 342° North 345 397 26,000 720 Climbing Washington Center
12:13PM 35.1456 -78.2667 341° North 376 433 26,000  Level Washington Center
12:14PM 35.2572 -78.3111 342° North 401 461 26,000  Level Washington Center
12:15PM 35.3708 -78.3608 340° North 423 487 26,000  Level Washington Center
12:16PM 35.4867 -78.4083 342° North 423 487 26,000  Level Washington Center
12:17PM 35.6189 -78.4614 342° North 434 499 26,000  Level Washington Center
12:18PM 35.7303 -78.5142 339° North 441 507 26,000 -600 Level Washington Center
12:19PM 35.8419 -78.5592 342° North 435 501 24,900 -1,260 Descending Washington Center
12:20PM 35.9469 -78.6067 340° North 423 487 23,600 -1,440 Descending Washington Center
12:21PM 36.0544 -78.6519 341° North 411 473 22,100 -1,500 Descending Washington Center
12:22PM 36.1575 -78.6972 340° North 404 465 20,600 -1,500 Descending Washington Center
12:23PM 36.2586 -78.7372 342° North 385 443 19,100 -1,500 Descending Washington Center
12:24PM 36.3453 -78.7767 340° North 362 417 17,600 -1,080 Descending Washington Center
12:25PM 36.4403 -78.8167 341° North 341 392 17,000 -360 Descending Washington Center
12:26PM 36.5289 -78.8592 339° North 341 392 17,000 -720 Level Washington Center
12:27PM 36.6153 -78.8964 341° North 341 392 15,600 -1,500 Descending Washington Center
12:28PM 36.6939 -78.9258 343° North 336 387 14,000 -1,800 Descending Washington Center
12:29PM 36.7806 -78.9631 341° North 331 381 12,000 -2,280 Descending Washington Center
12:30PM 36.8711 -79.0008 342° North 324 373 9,400 -2,400 Descending Washington Center
12:31PM 36.9453 -79.0353 340° North 305 351 7,200 -2,040 Descending Washington Center
12:32PM 37.0153 -79.0644 342° North 281 323 5,400 -1,620 Descending Washington Center
12:33PM 37.0753 -79.0881 343° North 257 296 4,000 -720 Descending Washington Center
12:34PM 37.1197 -79.1317 322° Northwest 240 276 4,000 -420 Level Washington Center
12:35PM 37.1344 -79.2028 285° West 199 229 3,200 -540 Descending Washington Center
12:36PM 37.1450 -79.2631 282° West 194 223 3,000 -120 Descending Washington Center
12:37PM 37.1714 -79.2878 323° Northwest 107 123 3,000 -60 Level Washington Center
12:38PM 37.2072 -79.2767 14° North 99 114 2,900 -120 Descending Washington Center
12:40PM 37.3167 -79.2000 322° Northwest  Level FlightAware Approximate
12:47PM 37.3254 -79.2012 322° Northwest  Level Estimated
12:48PM 37.3254 -79.2012 322° Northwest  Level Estimated
12:49PM 37.3254 -79.2012 322° Northwest  Level Estimated
12:50PM 37.3254 -79.2012 322° Northwest  Level Estimated
12:51PM 37.3254 -79.2012 322° Northwest  Level Estimated
12:52PM 37.3254 -79.2012 322° Northwest  Level Estimated
12:53PM 37.3254 -79.2012 322° Northwest  Level Estimated
12:54PM 37.3254 -79.2012 322° Northwest  Level Estimated